createdAt,value
2022-09-28T00:00:10.836Z,0.73
2022-09-28T00:03:14.257Z,0.80
2022-09-28T00:06:19.563Z,0.73
2022-09-28T00:09:21.651Z,0.70
2022-09-28T00:12:24.249Z,0.40
2022-09-28T00:15:26.622Z,0.82
2022-09-28T00:18:32.270Z,0.37
2022-09-28T00:21:36.959Z,0.50
2022-09-28T00:24:39.401Z,0.50
2022-09-28T00:27:43.188Z,0.73
2022-09-28T00:30:45.515Z,0.50
2022-09-28T00:33:51.988Z,0.40
2022-09-28T00:36:54.363Z,0.70
2022-09-28T00:39:56.484Z,0.60
2022-09-28T00:42:58.851Z,0.70
2022-09-28T00:46:15.312Z,0.55
2022-09-28T00:49:19.898Z,0.45
2022-09-28T00:52:48.687Z,0.50
2022-09-28T00:55:58.869Z,0.60
2022-09-28T00:59:01.835Z,0.50
2022-09-28T01:02:04.508Z,0.70
2022-09-28T01:05:10.133Z,0.68
2022-09-28T01:08:14.270Z,0.30
2022-09-28T01:11:17.577Z,0.50
2022-09-28T01:14:20.701Z,0.75
2022-09-28T01:17:48.238Z,0.50
2022-09-28T01:21:01.147Z,0.52
2022-09-28T01:24:16.510Z,0.52
2022-09-28T01:27:31.951Z,0.65
2022-09-28T01:30:50.937Z,0.60
2022-09-28T01:37:04.481Z,0.52
2022-09-28T01:40:10.007Z,0.55
2022-09-28T01:43:19.897Z,0.40
2022-09-28T01:46:34.347Z,0.40
2022-09-28T01:49:43.602Z,0.50
2022-09-28T01:52:54.453Z,0.82
2022-09-28T01:56:01.775Z,0.70
2022-09-28T01:59:13.725Z,0.68
2022-09-28T02:02:22.590Z,0.40
2022-09-28T02:05:33.220Z,0.52
2022-09-28T02:08:40.876Z,0.70
2022-09-28T02:11:48.010Z,0.60
2022-09-28T02:14:56.595Z,0.50
2022-09-28T02:17:59.195Z,0.52
2022-09-28T02:21:28.198Z,0.30
2022-09-28T02:24:43.917Z,0.40
2022-09-28T02:27:59.281Z,0.37
2022-09-28T02:31:02.550Z,0.40
2022-09-28T02:34:05.430Z,0.55
2022-09-28T02:37:07.962Z,0.50
2022-09-28T02:40:20.345Z,0.30
2022-09-28T02:43:31.723Z,0.30
2022-09-28T02:47:21.858Z,0.37
2022-09-28T02:50:31.377Z,0.43
2022-09-28T02:53:52.875Z,0.70
2022-09-28T02:57:07.569Z,0.40
2022-09-28T03:00:19.887Z,0.50
2022-09-28T03:03:39.629Z,0.50
2022-09-28T03:06:53.223Z,0.30
2022-09-28T03:10:03.275Z,0.60
2022-09-28T03:13:06.165Z,0.60
2022-09-28T03:16:14.478Z,0.60
2022-09-28T03:19:21.366Z,0.57
2022-09-28T03:22:23.868Z,0.40
2022-09-28T03:25:26.186Z,0.60
2022-09-28T03:28:29.626Z,0.47
2022-09-28T03:31:32.800Z,0.37
2022-09-28T03:34:35.657Z,0.70
2022-09-28T03:37:38.152Z,0.50
2022-09-28T03:40:40.839Z,0.32
2022-09-28T03:43:43.306Z,0.50
2022-09-28T03:46:47.567Z,0.47
2022-09-28T03:49:49.671Z,0.60
2022-09-28T03:52:52.024Z,0.47
2022-09-28T03:55:54.281Z,0.80
2022-09-28T03:58:56.623Z,0.80
2022-09-28T04:01:58.809Z,0.73
2022-09-28T04:05:01.239Z,0.60
2022-09-28T04:08:04.057Z,0.57
2022-09-28T04:11:06.714Z,0.75
2022-09-28T04:14:09.041Z,0.75
2022-09-28T04:17:11.458Z,0.80
2022-09-28T04:20:14.485Z,0.80
2022-09-28T04:23:20.303Z,0.70
2022-09-28T04:26:24.858Z,1.10
2022-09-28T04:29:28.024Z,0.90
2022-09-28T04:32:30.280Z,0.80
2022-09-28T04:35:32.699Z,0.85
2022-09-28T04:38:52.397Z,0.70
2022-09-28T04:41:59.816Z,0.80
2022-09-28T04:45:04.706Z,0.88
2022-09-28T04:48:08.107Z,0.82
2022-09-28T04:51:12.675Z,0.88
2022-09-28T04:54:15.127Z,0.88
2022-09-28T04:57:17.414Z,0.90
2022-09-28T05:00:20.088Z,0.70
2022-09-28T05:03:25.779Z,0.85
2022-09-28T05:06:31.044Z,0.73
2022-09-28T05:09:38.400Z,1.10
2022-09-28T05:12:42.175Z,1.23
2022-09-28T05:15:48.896Z,1.10
2022-09-28T05:18:58.022Z,1.20
2022-09-28T05:22:06.403Z,1.00
2022-09-28T05:25:11.151Z,1.30
2022-09-28T05:28:24.750Z,1.25
2022-09-28T05:31:28.092Z,0.70
2022-09-28T05:34:31.556Z,0.90
2022-09-28T05:37:34.427Z,0.93
2022-09-28T05:40:36.653Z,1.08
2022-09-28T05:43:39.595Z,1.83
2022-09-28T05:46:41.787Z,1.17
2022-09-28T05:49:44.665Z,1.23
2022-09-28T05:52:47.052Z,1.00
2022-09-28T05:55:49.836Z,1.48
2022-09-28T05:58:51.982Z,1.23
2022-09-28T06:01:54.831Z,1.25
2022-09-28T06:04:57.311Z,1.08
2022-09-28T06:07:59.553Z,0.90
2022-09-28T06:11:02.199Z,0.98
2022-09-28T06:14:05.062Z,1.25
2022-09-28T06:17:07.964Z,1.30
2022-09-28T06:20:11.826Z,1.10
2022-09-28T06:23:21.187Z,1.15
2022-09-28T06:26:23.347Z,1.65
2022-09-28T06:29:25.735Z,1.55
2022-09-28T06:32:29.332Z,1.10
2022-09-28T06:35:33.330Z,1.10
2022-09-28T06:38:35.844Z,0.80
2022-09-28T06:41:39.913Z,0.77
2022-09-28T06:44:47.041Z,0.70
2022-09-28T06:48:00.313Z,0.93
2022-09-28T06:51:03.446Z,0.75
2022-09-28T06:54:06.194Z,0.77
2022-09-28T06:57:09.277Z,0.55
2022-09-28T07:00:12.455Z,0.90
2022-09-28T07:03:19.927Z,0.62
2022-09-28T07:06:24.191Z,0.70
2022-09-28T07:09:32.982Z,0.70
2022-09-28T07:12:39.887Z,0.75
2022-09-28T07:15:43.293Z,0.70
2022-09-28T07:18:47.873Z,0.50
2022-09-28T07:22:03.084Z,0.60
2022-09-28T07:25:09.295Z,0.63
2022-09-28T07:28:12.721Z,0.60
2022-09-28T07:31:15.721Z,0.30
2022-09-28T07:34:18.592Z,0.40
2022-09-28T07:37:24.247Z,0.50
2022-09-28T07:40:48.402Z,0.57
2022-09-28T07:43:51.448Z,0.40
2022-09-28T07:46:54.739Z,0.90
2022-09-28T07:49:59.576Z,0.88
2022-09-28T07:53:03.942Z,0.57
2022-09-28T07:56:09.567Z,0.90
2022-09-28T07:59:12.725Z,0.70
2022-09-28T08:02:20.574Z,0.52
2022-09-28T08:05:23.111Z,1.10
2022-09-28T08:08:25.214Z,2.08
2022-09-28T08:11:27.997Z,0.98
2022-09-28T08:14:34.427Z,1.00
2022-09-28T08:17:37.714Z,1.10
2022-09-28T08:20:58.816Z,1.33
2022-09-28T08:24:01.580Z,0.80
2022-09-28T08:27:03.844Z,1.10
2022-09-28T08:30:09.844Z,1.10
2022-09-28T08:33:17.905Z,0.80
2022-09-28T08:36:29.626Z,0.98
2022-09-28T08:39:34.729Z,0.75
2022-09-28T08:42:44.459Z,0.70
2022-09-28T08:45:47.813Z,0.80
2022-09-28T08:49:23.921Z,0.82
2022-09-28T08:52:30.048Z,0.90
2022-09-28T08:55:37.241Z,0.75
2022-09-28T08:58:46.456Z,0.70
2022-09-28T09:04:58.034Z,1.00
2022-09-28T09:08:12.989Z,1.30
2022-09-28T09:11:27.340Z,0.98
2022-09-28T09:14:48.019Z,0.88
2022-09-28T09:18:30.313Z,0.90
2022-09-28T09:21:46.223Z,0.70
2022-09-28T09:24:50.798Z,1.02
2022-09-28T09:28:09.659Z,0.98
2022-09-28T09:31:26.494Z,1.00
2022-09-28T09:34:51.780Z,0.90
2022-09-28T09:38:33.995Z,0.80
2022-09-28T09:41:58.137Z,0.98
2022-09-28T09:45:23.520Z,0.80
2022-09-28T09:48:33.897Z,0.80
2022-09-28T09:51:46.985Z,0.93
2022-09-28T09:55:02.183Z,1.00
2022-09-28T09:58:11.784Z,0.73
2022-09-28T10:01:19.419Z,0.90
2022-09-28T10:04:39.407Z,0.85
2022-09-28T10:08:01.298Z,0.80
2022-09-28T10:14:24.220Z,0.80
2022-09-28T10:17:30.031Z,0.65
2022-09-28T10:20:39.618Z,0.55
2022-09-28T10:23:44.610Z,1.17
2022-09-28T10:26:51.811Z,0.88
2022-09-28T10:29:59.994Z,0.60
2022-09-28T10:33:02.498Z,0.70
2022-09-28T10:36:08.115Z,0.70
2022-09-28T10:39:33.642Z,1.08
2022-09-28T10:42:36.462Z,0.70
2022-09-28T10:45:39.261Z,0.62
2022-09-28T10:49:02.487Z,0.80
2022-09-28T10:52:28.963Z,0.73
2022-09-28T10:55:33.424Z,0.90
2022-09-28T10:58:41.842Z,3.87
2022-09-28T11:01:45.673Z,0.70
2022-09-28T11:04:53.063Z,0.85
2022-09-28T11:07:59.771Z,0.90
2022-09-28T11:11:03.928Z,1.05
2022-09-28T11:14:39.591Z,0.80
2022-09-28T11:17:44.553Z,1.23
2022-09-28T11:20:48.764Z,1.02
2022-09-28T11:24:19.910Z,1.20
2022-09-28T11:27:25.788Z,1.27
2022-09-28T11:30:44.584Z,1.55
2022-09-28T11:33:48.333Z,1.37
2022-09-28T11:37:15.633Z,1.10
2022-09-28T11:40:38.893Z,1.40
2022-09-28T11:43:41.726Z,1.65
2022-09-28T11:47:08.627Z,1.50
2022-09-28T11:50:24.470Z,1.40
2022-09-28T11:53:35.063Z,1.10
2022-09-28T11:56:42.129Z,1.40
2022-09-28T11:59:51.961Z,1.20
2022-09-28T12:03:07.243Z,0.95
2022-09-28T12:09:48.385Z,1.12
2022-09-28T12:12:58.265Z,1.05
2022-09-28T12:19:49.868Z,0.80
2022-09-28T12:23:08.234Z,0.77
2022-09-28T12:26:35.931Z,0.73
2022-09-28T12:29:47.414Z,0.73
2022-09-28T12:32:56.046Z,0.95
2022-09-28T12:36:14.725Z,0.70
2022-09-28T12:39:56.543Z,0.70
2022-09-28T12:43:28.854Z,0.70
2022-09-28T12:46:37.110Z,0.70
2022-09-28T12:53:41.549Z,0.57
2022-09-28T12:57:13.081Z,0.50
2022-09-28T13:00:32.176Z,0.85
2022-09-28T13:03:49.600Z,0.60
2022-09-28T13:07:06.396Z,0.75
2022-09-28T13:10:34.883Z,0.50
2022-09-28T13:13:49.307Z,0.60
2022-09-28T13:17:15.564Z,0.60
2022-09-28T13:20:32.111Z,0.40
2022-09-28T13:23:46.587Z,0.70
2022-09-28T13:26:49.710Z,0.52
2022-09-28T13:29:52.330Z,0.52
2022-09-28T13:33:00.995Z,0.40
2022-09-28T13:36:24.433Z,0.65
2022-09-28T13:39:46.456Z,0.60
2022-09-28T13:42:56.919Z,0.70
2022-09-28T13:46:07.618Z,0.45
2022-09-28T13:49:21.766Z,0.70
2022-09-28T13:52:43.444Z,0.52
2022-09-28T13:56:04.412Z,0.50
2022-09-28T13:59:23.161Z,0.30
2022-09-28T14:02:33.797Z,0.30
2022-09-28T14:05:55.044Z,0.40
2022-09-28T14:09:35.987Z,0.60
2022-09-28T14:12:38.296Z,0.47
2022-09-28T14:15:43.919Z,0.60
2022-09-28T14:19:10.053Z,0.37
2022-09-28T14:22:24.117Z,0.60
2022-09-28T14:25:42.982Z,0.30
2022-09-28T14:29:09.962Z,0.50
2022-09-28T14:32:12.547Z,0.47
2022-09-28T14:35:26.062Z,0.50
2022-09-28T14:38:54.411Z,0.30
2022-09-28T14:41:56.542Z,0.57
2022-09-28T14:45:06.113Z,0.50
2022-09-28T14:48:20.384Z,0.50
2022-09-28T14:51:26.395Z,0.60
2022-09-28T14:54:38.405Z,0.60
2022-09-28T14:57:42.084Z,0.90
2022-09-28T15:00:46.549Z,0.80
2022-09-28T15:03:54.098Z,0.80
2022-09-28T15:06:57.509Z,0.70
2022-09-28T15:10:04.221Z,1.12
2022-09-28T15:13:16.145Z,0.60
2022-09-28T15:16:24.059Z,0.65
2022-09-28T15:19:53.021Z,0.70
2022-09-28T15:22:58.334Z,0.75
2022-09-28T15:26:01.363Z,0.70
2022-09-28T15:29:18.010Z,0.90
2022-09-28T15:32:27.614Z,0.93
2022-09-28T15:35:30.051Z,0.73
2022-09-28T15:38:33.994Z,1.00
2022-09-28T15:41:36.559Z,1.10
2022-09-28T15:44:41.586Z,1.10
2022-09-28T15:47:44.835Z,1.33
2022-09-28T15:51:01.331Z,0.90
2022-09-28T15:54:21.532Z,0.77
2022-09-28T15:57:37.000Z,1.05
2022-09-28T16:00:40.215Z,1.20
2022-09-28T16:03:42.683Z,1.20
2022-09-28T16:06:45.255Z,1.48
2022-09-28T16:10:25.452Z,1.15
2022-09-28T16:13:27.809Z,0.82
2022-09-28T16:16:37.044Z,1.30
2022-09-28T16:19:39.586Z,1.45
2022-09-28T16:22:43.309Z,1.10
2022-09-28T16:26:04.331Z,1.30
2022-09-28T16:29:25.504Z,1.20
2022-09-28T16:32:33.986Z,0.95
2022-09-28T16:35:42.494Z,1.08
2022-09-28T16:38:45.480Z,1.10
2022-09-28T16:41:58.192Z,1.10
2022-09-28T16:45:04.203Z,1.20
2022-09-28T16:48:06.655Z,0.82
2022-09-28T16:51:08.710Z,1.30
2022-09-28T16:54:41.202Z,2.42
2022-09-28T16:57:45.416Z,1.55
2022-09-28T17:00:47.847Z,1.42
2022-09-28T17:03:50.191Z,1.15
2022-09-28T17:06:54.331Z,1.27
2022-09-28T17:09:56.404Z,1.80
2022-09-28T17:12:59.516Z,1.85
2022-09-28T17:16:04.395Z,1.60
2022-09-28T17:19:26.827Z,2.33
2022-09-28T17:22:29.505Z,1.92
2022-09-28T17:25:32.216Z,2.10
2022-09-28T17:28:37.173Z,2.25
2022-09-28T17:31:39.777Z,2.90
2022-09-28T17:34:48.334Z,2.12
2022-09-28T17:37:58.133Z,2.33
2022-09-28T17:41:00.275Z,2.28
2022-09-28T17:44:03.216Z,2.30
2022-09-28T17:47:05.326Z,2.35
2022-09-28T17:50:29.658Z,2.25
2022-09-28T17:53:31.716Z,2.53
2022-09-28T17:56:35.301Z,2.17
2022-09-28T17:59:37.375Z,2.30
2022-09-28T18:02:40.723Z,2.28
2022-09-28T18:05:43.940Z,2.50
2022-09-28T18:08:46.743Z,2.55
2022-09-28T18:11:52.773Z,2.65
2022-09-28T18:14:54.969Z,2.60
2022-09-28T18:17:57.414Z,2.75
2022-09-28T18:21:02.315Z,2.58
2022-09-28T18:24:04.886Z,2.87
2022-09-28T18:27:07.021Z,2.85
2022-09-28T18:30:09.855Z,3.22
2022-09-28T18:33:13.955Z,2.90
2022-09-28T18:36:16.358Z,2.47
2022-09-28T18:39:18.612Z,2.42
2022-09-28T18:42:21.114Z,2.50
2022-09-28T18:45:23.227Z,3.08
2022-09-28T18:48:27.926Z,3.12
2022-09-28T18:51:30.279Z,3.05
2022-09-28T18:54:33.283Z,3.87
2022-09-28T18:57:36.335Z,3.55
2022-09-28T19:00:40.459Z,3.10
2022-09-28T19:03:42.763Z,3.12
2022-09-28T19:06:47.482Z,3.08
2022-09-28T19:09:50.408Z,3.42
2022-09-28T19:12:52.831Z,3.00
2022-09-28T19:15:55.330Z,3.10
2022-09-28T19:18:59.091Z,2.90
2022-09-28T19:22:01.687Z,2.90
2022-09-28T19:25:04.524Z,3.70
2022-09-28T19:28:06.663Z,3.00
2022-09-28T19:31:10.845Z,2.85
2022-09-28T19:34:14.231Z,3.03
2022-09-28T19:37:16.938Z,2.95
2022-09-28T19:40:19.515Z,3.45
2022-09-28T19:43:22.131Z,3.60
2022-09-28T19:46:24.244Z,3.60
2022-09-28T19:49:27.892Z,3.15
2022-09-28T19:52:29.976Z,3.50
2022-09-28T19:55:36.231Z,3.72
2022-09-28T19:58:39.039Z,3.60
2022-09-28T20:01:42.291Z,3.75
2022-09-28T20:04:44.779Z,4.05
2022-09-28T20:07:46.864Z,4.03
2022-09-28T20:10:52.299Z,4.18
2022-09-28T20:13:55.273Z,4.12
2022-09-28T20:16:57.853Z,4.15
2022-09-28T20:19:59.988Z,4.20
2022-09-28T20:23:03.041Z,4.70
2022-09-28T20:26:07.034Z,5.25
2022-09-28T20:29:09.660Z,5.07
2022-09-28T20:32:12.164Z,4.70
2022-09-28T20:35:22.320Z,4.75
2022-09-28T20:38:32.378Z,5.65
2022-09-28T20:41:36.573Z,5.05
2022-09-28T20:44:41.638Z,5.15
2022-09-28T20:47:44.081Z,4.82
2022-09-28T20:50:46.174Z,4.50
2022-09-28T20:53:54.437Z,4.97
2022-09-28T20:56:56.550Z,4.53
2022-09-28T20:59:58.904Z,4.87
2022-09-28T21:03:01.102Z,4.47
2022-09-28T21:06:08.727Z,4.53
2022-09-28T21:09:13.610Z,4.65
2022-09-28T21:12:16.405Z,4.30
2022-09-28T21:15:18.520Z,4.12
2022-09-28T21:18:22.346Z,4.43
2022-09-28T21:21:25.657Z,3.30
2022-09-28T21:24:28.020Z,4.03
2022-09-28T21:27:30.940Z,3.65
2022-09-28T21:30:33.604Z,2.97
2022-09-28T21:33:35.780Z,3.47
2022-09-28T21:36:38.521Z,3.70
2022-09-28T21:39:40.658Z,3.72
2022-09-28T21:42:43.101Z,3.10
2022-09-28T21:45:49.641Z,3.30
2022-09-28T21:48:55.028Z,3.28
2022-09-28T21:51:57.171Z,3.40
2022-09-28T21:54:59.583Z,3.70
2022-09-28T21:58:01.680Z,3.70
2022-09-28T22:01:07.082Z,3.30
2022-09-28T22:04:10.214Z,4.15
2022-09-28T22:07:12.338Z,2.95
2022-09-28T22:10:15.315Z,3.10
2022-09-28T22:13:17.387Z,3.85
2022-09-28T22:16:23.063Z,3.42
2022-09-28T22:19:25.203Z,2.92
2022-09-28T22:22:29.256Z,3.60
2022-09-28T22:25:31.486Z,3.47
2022-09-28T22:28:34.873Z,3.45
2022-09-28T22:31:40.090Z,3.42
2022-09-28T22:34:42.571Z,3.08
2022-09-28T22:37:44.683Z,3.40
2022-09-28T22:40:51.811Z,3.65
2022-09-28T22:43:54.996Z,3.35
2022-09-28T22:46:57.435Z,3.90
2022-09-28T22:49:59.923Z,3.75
2022-09-28T22:53:02.314Z,2.92
2022-09-28T22:56:05.846Z,3.08
2022-09-28T22:59:08.250Z,3.72
2022-09-28T23:02:10.371Z,3.62
2022-09-28T23:05:13.507Z,3.03
2022-09-28T23:08:15.569Z,3.05
2022-09-28T23:11:18.812Z,3.83
2022-09-28T23:14:22.593Z,3.28
2022-09-28T23:17:25.031Z,3.30
2022-09-28T23:20:27.139Z,3.22
2022-09-28T23:23:29.787Z,3.25
2022-09-28T23:26:34.147Z,3.35
2022-09-28T23:29:36.500Z,3.20
2022-09-28T23:32:38.605Z,3.00
2022-09-28T23:35:41.838Z,2.97
2022-09-28T23:38:44.144Z,3.35
2022-09-28T23:41:46.528Z,3.15
2022-09-28T23:44:48.601Z,3.90
2022-09-28T23:47:51.511Z,3.58
2022-09-28T23:50:53.664Z,3.00
2022-09-28T23:53:56.100Z,3.50
2022-09-28T23:56:58.223Z,3.53
